Time;durP1;ratioP1;P1;durP2;ratioP2;P2;SDS_P1;SDS_P2;PMS_P1;PMS_P2;Temp;Humidity;BMP_temperature;BMP_pressure;BME280_temperature;BME280_humidity;BME280_pressure;Samples;Min_cycle;Max_cycle;Signal;HPM_P1;HPM_P2
2023/05/07 00:00:40;;;;;;;15.30;3.03;;;17.00;99.90;;;;;;4117708;28;20127;-55
2023/05/07 00:02:42;;;;;;;16.15;3.05;;;17.00;99.90;;;;;;4117633;28;20050;-54
2023/05/07 00:04:46;;;;;;;6.07;2.63;;;17.00;99.90;;;;;;4117809;28;20050;-54
2023/05/07 00:06:48;;;;;;;5.93;3.25;;;17.10;99.90;;;;;;4117568;28;20684;-54
2023/05/07 00:08:50;;;;;;;5.68;2.40;;;17.00;99.90;;;;;;4117096;28;20061;-54
2023/05/07 00:10:52;;;;;;;6.03;2.60;;;16.90;99.90;;;;;;4117851;28;20115;-54
2023/05/07 00:12:54;;;;;;;8.45;2.60;;;17.00;99.90;;;;;;4118140;28;20047;-53
2023/05/07 00:14:56;;;;;;;8.43;3.10;;;17.00;99.90;;;;;;4118192;28;20567;-54
2023/05/07 00:16:58;;;;;;;9.40;2.75;;;17.00;99.90;;;;;;4118011;28;20042;-54
2023/05/07 00:19:00;;;;;;;14.27;2.85;;;17.00;99.90;;;;;;4115768;28;20051;-54
2023/05/07 00:21:04;;;;;;;18.42;3.35;;;16.90;99.90;;;;;;4117175;28;20057;-55
2023/05/07 00:23:06;;;;;;;9.30;2.60;;;16.90;99.90;;;;;;4132084;28;20411;-53
2023/05/07 00:25:10;;;;;;;5.07;2.30;;;16.90;99.90;;;;;;4133607;28;20042;-55
2023/05/07 00:27:11;;;;;;;5.57;2.22;;;16.90;99.90;;;;;;4133579;28;20108;-53
2023/05/07 00:29:14;;;;;;;9.05;2.50;;;17.00;99.90;;;;;;4132614;28;20052;-61
2023/05/07 00:31:16;;;;;;;7.55;2.45;;;17.00;99.90;;;;;;4133541;28;20448;-54
2023/05/07 00:33:18;;;;;;;9.32;2.55;;;17.10;99.90;;;;;;4133591;28;20050;-55
2023/05/07 00:35:20;;;;;;;6.13;2.20;;;17.10;99.90;;;;;;4132877;28;20104;-55
2023/05/07 00:37:23;;;;;;;3.70;1.98;;;17.10;99.90;;;;;;4133477;28;20057;-55
2023/05/07 00:39:25;;;;;;;5.57;1.85;;;17.10;99.90;;;;;;4115161;28;20050;-54
2023/05/07 00:41:27;;;;;;;5.05;1.70;;;17.00;99.90;;;;;;4133286;28;20503;-56
2023/05/07 00:43:29;;;;;;;5.85;2.15;;;17.00;99.90;;;;;;4133317;28;20046;-54
2023/05/07 00:45:32;;;;;;;6.22;1.52;;;17.00;99.90;;;;;;4133271;28;20455;-54
2023/05/07 00:47:35;;;;;;;4.57;2.08;;;17.00;99.90;;;;;;4116130;28;20051;-55
2023/05/07 00:49:39;;;;;;;3.33;1.77;;;17.10;99.90;;;;;;4132043;28;20404;-55
2023/05/07 00:51:42;;;;;;;4.07;2.08;;;17.10;99.90;;;;;;4133201;28;20404;-53
2023/05/07 00:53:45;;;;;;;2.55;1.45;;;17.10;99.90;;;;;;4133248;28;20100;-54
2023/05/07 00:55:48;;;;;;;11.00;2.20;;;17.00;99.90;;;;;;4133024;28;20109;-54
2023/05/07 00:57:51;;;;;;;4.15;1.92;;;17.00;99.90;;;;;;4132914;28;20061;-55
2023/05/07 00:59:53;;;;;;;4.90;1.77;;;17.00;99.90;;;;;;4132085;28;20053;-55
2023/05/07 01:01:55;;;;;;;3.17;1.77;;;17.10;99.90;;;;;;4133145;28;20042;-54
2023/05/07 01:03:58;;;;;;;4.38;1.98;;;17.10;99.90;;;;;;4132797;28;20051;-55
2023/05/07 01:06:01;;;;;;;4.28;1.75;;;17.00;99.90;;;;;;4132948;28;20592;-54
2023/05/07 01:08:05;;;;;;;4.18;1.83;;;17.00;99.90;;;;;;4133130;28;20392;-53
2023/05/07 01:10:10;;;;;;;3.88;1.70;;;16.90;99.90;;;;;;4132043;28;20062;-54
2023/05/07 01:12:13;;;;;;;10.40;1.80;;;17.00;99.90;;;;;;4132864;28;20069;-55
2023/05/07 01:14:16;;;;;;;5.88;1.50;;;17.00;99.90;;;;;;4132876;28;20455;-52
2023/05/07 01:16:18;;;;;;;3.08;1.33;;;17.00;99.90;;;;;;4132624;28;20389;-54
2023/05/07 01:18:21;;;;;;;2.97;1.30;;;17.00;99.90;;;;;;4132356;28;20436;-55
2023/05/07 01:20:24;;;;;;;6.15;1.60;;;17.00;99.90;;;;;;4131890;28;20451;-55
2023/05/07 01:22:32;;;;;;;4.45;1.27;;;17.00;99.90;;;;;;4132375;28;20141;-55
2023/05/07 01:24:36;;;;;;;5.50;1.70;;;16.90;99.90;;;;;;4132748;28;20050;-54
2023/05/07 01:26:39;;;;;;;4.45;1.88;;;16.90;99.90;;;;;;4132730;28;20079;-54
2023/05/07 01:28:41;;;;;;;15.50;1.48;;;16.90;99.90;;;;;;4132207;28;20042;-55
2023/05/07 01:30:46;;;;;;;5.93;1.38;;;16.90;99.90;;;;;;4132049;28;20137;-52
2023/05/07 01:32:53;;;;;;;3.25;1.20;;;16.90;99.90;;;;;;4132200;28;20081;-55
2023/05/07 01:34:57;;;;;;;3.47;1.10;;;16.80;99.90;;;;;;4132565;28;20046;-54
2023/05/07 01:37:00;;;;;;;1.95;1.27;;;16.80;99.90;;;;;;4132767;28;20187;-56
2023/05/07 01:39:05;;;;;;;3.00;1.00;;;16.80;99.90;;;;;;4131509;28;20056;-54
2023/05/07 01:41:07;;;;;;;;;;;16.80;99.90;;;;;;4132967;28;20053;-54
2023/05/07 01:43:10;;;;;;;10.65;1.20;;;16.80;99.90;;;;;;4132296;28;19965;-55
2023/05/07 01:45:12;;;;;;;7.45;1.15;;;16.80;99.90;;;;;;4132575;28;20516;-53
2023/05/07 01:47:14;;;;;;;2.05;1.30;;;16.80;99.90;;;;;;4132194;28;20054;-54
2023/05/07 01:49:18;;;;;;;3.40;1.40;;;16.90;99.90;;;;;;4131369;28;20048;-54
2023/05/07 01:51:22;;;;;;;2.33;1.48;;;16.90;99.90;;;;;;4132098;28;20038;-54
2023/05/07 01:53:26;;;;;;;3.83;1.38;;;16.90;99.90;;;;;;4132384;28;20105;-54
2023/05/07 01:55:30;;;;;;;1.90;1.00;;;17.00;99.90;;;;;;4132060;28;20046;-54
2023/05/07 01:57:32;;;;;;;4.70;1.33;;;16.90;99.90;;;;;;4132525;28;20048;-54
2023/05/07 01:59:34;;;;;;;4.38;1.20;;;17.00;99.90;;;;;;4131218;28;20054;-54
2023/05/07 02:01:36;;;;;;;3.85;1.30;;;16.90;99.90;;;;;;4132303;28;20046;-55
2023/05/07 02:03:38;;;;;;;2.92;1.50;;;16.90;99.90;;;;;;4132387;28;20046;-55
2023/05/07 02:05:40;;;;;;;1.70;1.00;;;16.90;99.90;;;;;;4132494;28;20048;-54
2023/05/07 02:07:43;;;;;;;3.17;1.38;;;16.90;99.90;;;;;;4132157;28;20057;-54
2023/05/07 02:09:45;;;;;;;2.15;1.20;;;17.00;99.90;;;;;;4131248;28;20050;-55
2023/05/07 02:11:48;;;;;;;3.15;1.42;;;16.90;99.90;;;;;;4132396;28;20046;-54
2023/05/07 02:13:50;;;;;;;1.85;1.20;;;16.90;99.90;;;;;;4114646;28;20097;-54
2023/05/07 02:15:53;;;;;;;2.47;1.20;;;17.00;99.90;;;;;;4132182;28;20491;-55
2023/05/07 02:18:00;;;;;;;2.13;1.38;;;17.00;99.90;;;;;;4131889;28;20054;-54
2023/05/07 02:20:04;;;;;;;6.05;1.67;;;17.00;99.90;;;;;;4130968;28;20050;-55
2023/05/07 02:22:07;;;;;;;1.92;1.25;;;17.00;99.90;;;;;;4131772;28;20455;-53
2023/05/07 02:24:09;;;;;;;4.43;1.52;;;16.90;99.90;;;;;;4131714;28;20050;-54
2023/05/07 02:26:11;;;;;;;4.45;1.40;;;16.90;99.90;;;;;;4131939;28;20050;-54
2023/05/07 02:28:15;;;;;;;1.70;1.30;;;16.80;99.90;;;;;;4131873;28;20117;-53
2023/05/07 02:30:17;;;;;;;3.17;1.38;;;16.80;99.90;;;;;;4130774;28;20514;-54
2023/05/07 02:32:19;;;;;;;2.55;1.20;;;16.80;99.90;;;;;;4131568;28;20055;-54
2023/05/07 02:34:21;;;;;;;2.17;1.20;;;16.90;99.90;;;;;;4131540;28;20085;-54
2023/05/07 02:36:24;;;;;;;2.17;1.40;;;16.90;99.90;;;;;;4131845;28;20051;-54
2023/05/07 02:38:26;;;;;;;2.75;1.50;;;17.00;99.90;;;;;;4131647;28;20105;-54
2023/05/07 02:40:28;;;;;;;3.63;1.38;;;17.00;99.90;;;;;;4130803;28;20104;-53
2023/05/07 02:42:30;;;;;;;3.08;1.42;;;17.00;99.90;;;;;;4131067;28;20046;-54
2023/05/07 02:44:35;;;;;;;4.13;1.73;;;17.10;99.90;;;;;;4131623;28;20164;-55
2023/05/07 02:46:37;;;;;;;6.22;1.42;;;17.10;99.90;;;;;;4131097;28;20053;-53
2023/05/07 02:48:39;;;;;;;2.08;1.30;;;17.10;99.90;;;;;;4131643;28;20065;-55
2023/05/07 02:50:41;;;;;;;2.50;1.60;;;17.20;99.90;;;;;;4130565;28;20052;-55
2023/05/07 02:52:43;;;;;;;2.80;1.50;;;17.10;99.90;;;;;;4131703;28;20386;-54
2023/05/07 02:54:45;;;;;;;3.40;1.55;;;17.10;99.90;;;;;;4131780;28;20061;-54
2023/05/07 02:56:47;;;;;;;2.95;1.90;;;17.10;99.90;;;;;;4131542;28;20053;-53
2023/05/07 02:58:49;;;;;;;5.40;2.13;;;17.00;99.90;;;;;;4131271;28;20436;-54
2023/05/07 03:00:56;;;;;;;4.20;1.65;;;17.10;99.90;;;;;;4130549;28;20046;-53
2023/05/07 03:02:58;;;;;;;4.35;2.25;;;17.10;99.90;;;;;;4131405;28;20076;-54
2023/05/07 03:05:01;;;;;;;3.95;2.38;;;17.20;99.90;;;;;;4131285;28;20047;-54
2023/05/07 03:07:03;;;;;;;5.03;2.08;;;17.10;99.90;;;;;;4131633;28;20051;-53
2023/05/07 03:09:07;;;;;;;2.45;1.65;;;17.10;99.90;;;;;;4130783;28;20085;-55
2023/05/07 03:11:09;;;;;;;3.75;1.60;;;17.20;99.90;;;;;;4131015;28;20046;-55
2023/05/07 03:13:11;;;;;;;3.80;1.90;;;17.20;99.90;;;;;;4131356;28;20042;-54
2023/05/07 03:15:13;;;;;;;4.45;2.08;;;17.20;99.90;;;;;;4113849;28;20500;-53
2023/05/07 03:17:17;;;;;;;5.07;2.22;;;17.20;99.90;;;;;;4131337;28;20109;-54
2023/05/07 03:19:19;;;;;;;5.07;2.50;;;17.10;99.90;;;;;;4130312;28;20051;-54
2023/05/07 03:21:21;;;;;;;2.83;1.90;;;17.10;99.90;;;;;;4113953;28;20051;-54
2023/05/07 03:23:23;;;;;;;5.55;2.70;;;17.10;99.90;;;;;;4131058;28;20105;-54
2023/05/07 03:25:26;;;;;;;2.90;1.80;;;17.10;99.90;;;;;;4131182;28;20053;-54
2023/05/07 03:27:28;;;;;;;3.75;1.85;;;17.10;99.90;;;;;;4131207;28;20057;-55
2023/05/07 03:29:30;;;;;;;5.28;1.80;;;17.10;99.90;;;;;;4130200;28;20626;-54
2023/05/07 03:31:32;;;;;;;5.20;1.90;;;17.20;99.90;;;;;;4131124;28;20105;-56
2023/05/07 03:33:39;;;;;;;4.43;1.50;;;17.20;99.90;;;;;;4131201;28;20050;-54
2023/05/07 03:35:41;;;;;;;4.00;2.00;;;17.20;99.90;;;;;;4131119;28;20057;-54
2023/05/07 03:37:43;;;;;;;2.97;1.75;;;17.30;99.90;;;;;;4131228;28;20129;-53
2023/05/07 03:39:45;;;;;;;5.88;1.83;;;17.30;99.90;;;;;;4130072;28;20141;-53
2023/05/07 03:41:47;;;;;;;5.88;1.92;;;17.30;99.90;;;;;;4131278;28;20129;-54
2023/05/07 03:43:49;;;;;;;6.07;2.65;;;17.30;99.90;;;;;;4130823;28;20096;-54
2023/05/07 03:45:51;;;;;;;6.22;1.98;;;17.30;99.90;;;;;;4130979;28;20105;-54
2023/05/07 03:47:54;;;;;;;3.00;1.90;;;17.30;99.90;;;;;;4131081;28;20060;-54
2023/05/07 03:49:57;;;;;;;3.35;1.52;;;17.20;99.90;;;;;;4130244;28;20050;-54
2023/05/07 03:51:59;;;;;;;7.80;2.10;;;17.30;99.90;;;;;;4131196;28;20058;-56
2023/05/07 03:54:02;;;;;;;5.03;1.10;;;17.20;99.90;;;;;;4133054;28;20430;-54
2023/05/07 03:56:04;;;;;;;2.83;1.33;;;17.10;99.90;;;;;;4135367;28;20121;-54
2023/05/07 03:58:06;;;;;;;4.28;1.33;;;17.10;99.90;;;;;;4134705;28;20450;-53
2023/05/07 04:00:09;;;;;;;5.40;1.30;;;17.10;99.90;;;;;;4133296;28;20050;-54
2023/05/07 04:02:12;;;;;;;9.82;1.20;;;17.00;99.90;;;;;;4116869;28;20047;-55
2023/05/07 04:04:16;;;;;;;1.42;0.70;;;17.00;99.90;;;;;;4134104;28;20066;-54
2023/05/07 04:06:20;;;;;;;3.53;1.42;;;16.90;99.90;;;;;;4133793;28;20081;-54
2023/05/07 04:08:22;;;;;;;1.17;0.60;;;16.90;99.90;;;;;;4133833;28;20050;-55
2023/05/07 04:10:24;;;;;;;0.77;0.73;;;16.90;99.90;;;;;;4132795;28;20121;-55
2023/05/07 04:12:29;;;;;;;2.55;0.80;;;16.80;99.90;;;;;;4133778;28;20081;-54
2023/05/07 04:14:32;;;;;;;3.17;0.73;;;16.90;99.90;;;;;;4133657;28;20046;-54
2023/05/07 04:16:34;;;;;;;7.28;1.00;;;16.80;99.90;;;;;;4133885;28;20042;-54
2023/05/07 04:18:37;;;;;;;3.15;1.08;;;16.80;99.90;;;;;;4133926;28;20574;-54
2023/05/07 04:20:40;;;;;;;2.17;0.93;;;16.80;99.90;;;;;;4132468;28;20109;-54
2023/05/07 04:22:43;;;;;;;2.03;0.93;;;16.80;99.90;;;;;;4133630;28;20422;-55
2023/05/07 04:24:45;;;;;;;0.90;0.80;;;16.90;99.90;;;;;;4133776;28;20055;-54
2023/05/07 04:26:47;;;;;;;1.45;0.90;;;16.90;99.90;;;;;;4133333;28;20050;-55
2023/05/07 04:28:49;;;;;;;3.15;0.80;;;16.90;99.90;;;;;;4133589;28;20500;-54
2023/05/07 04:30:51;;;;;;;3.65;0.90;;;16.90;99.90;;;;;;4132651;28;20050;-54
2023/05/07 04:32:56;;;;;;;1.42;0.80;;;16.90;99.90;;;;;;4133511;28;20104;-58
2023/05/07 04:34:58;;;;;;;2.83;1.42;;;16.90;99.90;;;;;;4133374;28;20093;-54
2023/05/07 04:37:00;;;;;;;2.35;1.00;;;16.90;99.90;;;;;;4133729;28;20046;-55
2023/05/07 04:39:04;;;;;;;2.67;1.20;;;16.90;99.90;;;;;;4133336;28;20512;-54
2023/05/07 04:41:08;;;;;;;2.47;0.90;;;17.00;99.90;;;;;;4132202;28;20061;-53
2023/05/07 04:43:11;;;;;;;;;;;17.00;99.90;;;;;;4133852;28;20057;-57
2023/05/07 04:45:14;;;;;;;2.78;0.93;;;16.90;99.90;;;;;;4133606;28;19922;-54
2023/05/07 04:47:16;;;;;;;1.98;1.20;;;16.90;99.90;;;;;;4133581;28;20074;-55
2023/05/07 04:49:18;;;;;;;1.23;0.63;;;16.90;99.90;;;;;;4133177;28;20046;-54
2023/05/07 04:51:21;;;;;;;4.40;0.60;;;17.00;99.90;;;;;;4133182;28;20056;-55
2023/05/07 04:53:23;;;;;;;1.48;0.73;;;17.00;99.90;;;;;;4133200;28;20073;-55
2023/05/07 04:55:26;;;;;;;3.03;0.70;;;17.00;99.90;;;;;;4132935;28;20070;-54
2023/05/07 04:57:29;;;;;;;2.38;0.77;;;16.90;99.90;;;;;;4133163;28;20089;-53
2023/05/07 04:59:31;;;;;;;1.08;0.60;;;17.00;99.90;;;;;;4132233;28;20101;-55
2023/05/07 05:01:33;;;;;;;2.70;0.80;;;17.00;99.90;;;;;;4132900;28;20125;-55
2023/05/07 05:03:36;;;;;;;5.95;1.10;;;17.00;99.90;;;;;;4133015;28;20093;-53
2023/05/07 05:05:38;;;;;;;4.25;0.93;;;17.00;99.90;;;;;;4132428;28;20133;-55
2023/05/07 05:07:41;;;;;;;1.98;0.98;;;17.00;99.90;;;;;;4132889;28;20271;-54
2023/05/07 05:09:43;;;;;;;1.45;0.90;;;17.00;99.90;;;;;;4114934;28;20261;-60
2023/05/07 05:11:46;;;;;;;3.40;1.17;;;16.90;99.90;;;;;;4132454;28;20046;-54
2023/05/07 05:13:49;;;;;;;2.53;0.75;;;17.00;99.90;;;;;;4132811;28;20191;-54
2023/05/07 05:15:51;;;;;;;2.25;1.00;;;17.00;99.90;;;;;;4132874;28;20053;-54
2023/05/07 05:17:53;;;;;;;1.38;1.00;;;17.00;99.90;;;;;;4132983;28;20081;-54
2023/05/07 05:19:56;;;;;;;2.63;1.17;;;17.00;99.90;;;;;;4131731;28;20410;-54
2023/05/07 05:21:57;;;;;;;1.65;1.00;;;17.00;99.90;;;;;;4132552;28;20117;-55
2023/05/07 05:24:00;;;;;;;1.30;0.75;;;17.10;99.90;;;;;;4132563;28;20061;-54
2023/05/07 05:26:02;;;;;;;4.40;1.08;;;17.10;99.90;;;;;;4132480;28;20085;-53
2023/05/07 05:28:05;;;;;;;1.55;0.80;;;17.00;99.90;;;;;;4132877;28;20053;-53
2023/05/07 05:30:08;;;;;;;3.15;1.33;;;17.00;99.90;;;;;;4131703;28;20052;-55
2023/05/07 05:32:11;;;;;;;1.52;0.70;;;17.00;99.90;;;;;;4132612;28;20050;-55
2023/05/07 05:34:13;;;;;;;3.70;1.38;;;17.00;99.90;;;;;;4132596;28;20046;-54
2023/05/07 05:36:16;;;;;;;1.75;0.90;;;17.00;99.90;;;;;;4132215;28;20051;-54
2023/05/07 05:38:18;;;;;;;1.83;0.95;;;16.90;99.90;;;;;;4132649;28;20060;-54
2023/05/07 05:40:20;;;;;;;3.22;1.40;;;16.90;99.90;;;;;;4131131;28;20043;-55
2023/05/07 05:42:23;;;;;;;2.47;1.48;;;17.00;99.90;;;;;;4132466;28;20458;-54
2023/05/07 05:44:26;;;;;;;2.42;0.95;;;16.90;99.90;;;;;;4133269;28;20102;-62
2023/05/07 05:46:28;;;;;;;1.90;1.35;;;17.00;99.90;;;;;;4133327;28;20450;-54
2023/05/07 05:48:31;;;;;;;2.17;1.13;;;17.10;99.90;;;;;;4133177;28;20053;-54
2023/05/07 05:50:35;;;;;;;2.00;0.90;;;17.10;99.90;;;;;;4131618;28;20411;-53
2023/05/07 05:52:37;;;;;;;3.00;1.25;;;17.10;99.90;;;;;;4132580;28;20046;-53
2023/05/07 05:54:39;;;;;;;1.42;0.90;;;17.20;99.90;;;;;;4131857;28;20054;-54
2023/05/07 05:56:42;;;;;;;1.70;1.08;;;17.20;99.90;;;;;;4132144;28;20058;-54
2023/05/07 05:58:44;;;;;;;2.47;1.10;;;17.30;99.90;;;;;;4132305;28;20183;-53
2023/05/07 06:00:48;;;;;;;5.43;1.58;;;17.30;99.90;;;;;;4131214;28;20057;-55
2023/05/07 06:02:50;;;;;;;2.43;1.10;;;17.20;99.90;;;;;;4132283;28;20054;-54
2023/05/07 06:04:52;;;;;;;2.22;1.48;;;17.20;99.90;;;;;;4132122;28;20046;-54
2023/05/07 06:06:54;;;;;;;1.63;1.20;;;17.20;99.90;;;;;;4132174;28;20077;-54
2023/05/07 06:08:57;;;;;;;2.95;1.48;;;17.30;99.90;;;;;;4132048;28;20053;-54
2023/05/07 06:11:00;;;;;;;1.80;1.27;;;17.30;99.90;;;;;;4131125;28;20046;-55
2023/05/07 06:13:03;;;;;;;1.30;0.90;;;17.30;99.90;;;;;;4132412;28;20118;-55
2023/05/07 06:15:06;;;;;;;2.78;1.10;;;17.30;99.90;;;;;;4131979;28;20050;-55
2023/05/07 06:17:10;;;;;;;2.40;1.13;;;17.30;99.90;;;;;;4131123;28;20502;-54
2023/05/07 06:19:12;;;;;;;2.20;1.02;;;17.40;99.90;;;;;;4131894;28;20046;-55
2023/05/07 06:21:15;;;;;;;2.47;1.20;;;17.40;99.90;;;;;;4130864;28;20072;-54
2023/05/07 06:23:17;;;;;;;3.00;1.38;;;17.40;99.90;;;;;;4113888;28;20061;-56
2023/05/07 06:25:19;;;;;;;1.75;1.30;;;17.40;99.90;;;;;;4132031;28;20046;-55
2023/05/07 06:27:22;;;;;;;2.92;1.45;;;17.40;99.90;;;;;;4131976;28;20388;-54
2023/05/07 06:29:25;;;;;;;2.17;1.10;;;17.40;99.90;;;;;;4131637;28;20042;-52
2023/05/07 06:31:33;;;;;;;2.92;0.98;;;17.40;99.90;;;;;;4113721;28;20079;-55
2023/05/07 06:33:37;;;;;;;1.48;0.93;;;17.30;99.90;;;;;;4114293;28;20422;-54
2023/05/07 06:35:38;;;;;;;1.25;1.05;;;17.40;99.90;;;;;;4131615;28;20043;-54
2023/05/07 06:37:42;;;;;;;1.80;1.00;;;17.40;99.90;;;;;;4131418;28;20057;-55
2023/05/07 06:39:44;;;;;;;4.03;0.95;;;17.40;99.90;;;;;;4131469;28;20046;-56
2023/05/07 06:41:46;;;;;;;1.27;0.70;;;17.50;99.90;;;;;;4131316;28;20062;-54
2023/05/07 06:43:48;;;;;;;1.80;1.00;;;17.40;99.90;;;;;;4131684;28;20210;-53
2023/05/07 06:45:50;;;;;;;1.83;0.82;;;17.40;99.90;;;;;;4131652;28;20069;-54
2023/05/07 06:47:52;;;;;;;2.70;0.70;;;17.50;99.90;;;;;;4131440;28;20077;-55
2023/05/07 06:49:56;;;;;;;1.00;0.70;;;17.50;99.90;;;;;;4130792;28;20097;-54
2023/05/07 06:51:58;;;;;;;0.80;0.50;;;17.40;99.90;;;;;;4131042;28;20105;-55
2023/05/07 06:54:00;;;;;;;1.05;0.50;;;17.50;99.90;;;;;;4131630;28;20113;-55
2023/05/07 06:56:02;;;;;;;1.17;0.70;;;17.50;99.90;;;;;;4131539;28;20476;-55
2023/05/07 06:58:05;;;;;;;1.13;0.60;;;17.50;99.90;;;;;;4131455;28;20046;-55
2023/05/07 07:00:09;;;;;;;0.93;0.80;;;17.50;99.90;;;;;;4130560;28;20054;-56
2023/05/07 07:02:12;;;;;;;1.23;0.68;;;17.40;99.90;;;;;;4131349;28;20492;-54
2023/05/07 07:04:15;;;;;;;2.08;0.65;;;17.50;99.90;;;;;;4131260;28;20046;-53
2023/05/07 07:06:19;;;;;;;1.88;1.00;;;17.50;99.90;;;;;;4131100;28;20061;-54
2023/05/07 07:08:22;;;;;;;1.27;0.80;;;17.60;99.90;;;;;;4131644;28;20100;-55
2023/05/07 07:10:24;;;;;;;1.52;0.82;;;17.60;99.90;;;;;;4131381;28;20415;-53
2023/05/07 07:12:26;;;;;;;1.77;1.00;;;17.70;99.90;;;;;;4131336;28;20050;-54
2023/05/07 07:14:28;;;;;;;1.50;0.80;;;17.70;99.90;;;;;;4131432;28;20075;-54
2023/05/07 07:16:30;;;;;;;2.53;0.88;;;17.70;99.90;;;;;;4131528;28;20122;-55
2023/05/07 07:18:32;;;;;;;2.08;1.02;;;17.80;99.90;;;;;;4114015;28;20055;-53
2023/05/07 07:20:34;;;;;;;3.92;1.02;;;17.80;99.90;;;;;;4129943;28;20133;-54
2023/05/07 07:22:38;;;;;;;1.30;0.80;;;17.80;99.90;;;;;;4113739;28;20055;-55
2023/05/07 07:24:40;;;;;;;2.78;1.20;;;17.80;99.90;;;;;;4131375;28;20141;-54
2023/05/07 07:26:42;;;;;;;1.88;0.95;;;17.70;99.90;;;;;;4131270;28;20052;-54
2023/05/07 07:28:45;;;;;;;1.52;0.77;;;17.70;99.90;;;;;;4133043;28;20514;-55
2023/05/07 07:30:47;;;;;;;3.65;1.13;;;17.70;99.90;;;;;;4133663;28;20057;-54
2023/05/07 07:32:49;;;;;;;2.63;1.27;;;17.70;99.90;;;;;;4134552;28;20042;-55
2023/05/07 07:34:51;;;;;;;2.22;1.10;;;17.70;99.90;;;;;;4135202;28;20167;-54
2023/05/07 07:36:53;;;;;;;1.10;0.73;;;17.80;99.90;;;;;;4135589;28;20050;-54
2023/05/07 07:38:56;;;;;;;3.08;1.30;;;17.80;99.90;;;;;;4135604;28;20133;-55
2023/05/07 07:40:58;;;;;;;3.30;1.02;;;17.80;99.90;;;;;;4134148;28;20050;-53
2023/05/07 07:43:01;;;;;;;1.70;1.08;;;17.80;99.90;;;;;;4135042;28;20046;-55
2023/05/07 07:45:04;;;;;;;2.70;1.20;;;17.80;99.90;;;;;;4117483;28;20480;-57
2023/05/07 07:47:06;;;;;;;1.85;1.13;;;17.80;99.90;;;;;;4134194;28;20046;-54
2023/05/07 07:49:08;;;;;;;1.33;1.00;;;17.80;99.90;;;;;;4134381;28;20054;-55
2023/05/07 07:51:10;;;;;;;1.65;1.00;;;17.80;99.90;;;;;;4132858;28;20062;-54
2023/05/07 07:53:13;;;;;;;2.33;1.10;;;17.80;99.90;;;;;;4134341;28;20492;-54
2023/05/07 07:55:22;;;;;;;2.65;1.33;;;17.80;99.90;;;;;;4134036;28;20149;-55
2023/05/07 07:57:26;;;;;;;1.75;1.30;;;17.80;99.90;;;;;;4134128;28;20061;-53
2023/05/07 07:59:28;;;;;;;1.77;1.15;;;17.80;99.90;;;;;;4134064;28;20092;-53
2023/05/07 08:01:31;;;;;;;2.13;1.15;;;17.90;99.90;;;;;;4133146;28;20046;-54
2023/05/07 08:03:33;;;;;;;1.17;0.82;;;17.90;99.90;;;;;;4134169;28;20467;-54
2023/05/07 08:05:36;;;;;;;1.70;1.10;;;17.90;99.90;;;;;;4133651;28;20054;-54
2023/05/07 08:07:38;;;;;;;3.58;1.42;;;17.90;99.90;;;;;;4133753;28;20054;-54
2023/05/07 08:09:40;;;;;;;2.13;1.33;;;17.90;99.90;;;;;;4133634;28;20050;-55
2023/05/07 08:11:44;;;;;;;2.47;1.17;;;18.00;99.90;;;;;;4132920;28;20066;-54
2023/05/07 08:13:46;;;;;;;3.03;1.30;;;18.00;99.90;;;;;;4133943;28;20050;-54
2023/05/07 08:15:48;;;;;;;3.53;1.38;;;18.00;99.90;;;;;;4134001;28;20093;-55
2023/05/07 08:17:50;;;;;;;4.07;1.30;;;18.00;99.90;;;;;;4133817;28;20057;-55
2023/05/07 08:19:52;;;;;;;3.60;1.58;;;18.00;99.90;;;;;;4132740;28;20046;-54
2023/05/07 08:21:55;;;;;;;1.85;1.15;;;18.00;99.90;;;;;;4133526;28;20534;-54
2023/05/07 08:23:57;;;;;;;1.23;1.10;;;18.10;99.90;;;;;;4133716;28;20054;-54
2023/05/07 08:25:59;;;;;;;2.15;1.23;;;18.10;99.90;;;;;;4133410;28;20057;-53
2023/05/07 08:28:03;;;;;;;1.48;1.02;;;18.10;99.90;;;;;;4133499;28;20543;-54
2023/05/07 08:30:06;;;;;;;1.30;1.08;;;18.10;99.90;;;;;;4133558;28;20076;-54
2023/05/07 08:32:08;;;;;;;1.73;1.17;;;18.10;99.90;;;;;;4133497;28;20410;-54
2023/05/07 08:34:10;;;;;;;1.70;0.90;;;18.10;99.90;;;;;;4133266;28;20093;-53
2023/05/07 08:36:12;;;;;;;1.70;0.98;;;18.10;99.90;;;;;;4133695;28;20519;-53
2023/05/07 08:38:15;;;;;;;2.25;1.10;;;18.20;99.90;;;;;;4133227;28;20042;-55
2023/05/07 08:40:17;;;;;;;4.18;1.50;;;18.30;99.90;;;;;;4114247;28;20563;-54
2023/05/07 08:42:22;;;;;;;2.20;1.02;;;18.30;99.90;;;;;;4133533;28;20415;-54
2023/05/07 08:44:27;;;;;;;1.00;0.90;;;18.40;99.90;;;;;;4133119;28;20050;-55
2023/05/07 08:46:32;;;;;;;4.00;1.10;;;18.50;99.90;;;;;;4133292;28;20066;-54
2023/05/07 08:48:34;;;;;;;2.80;1.13;;;18.50;99.90;;;;;;4133066;28;20050;-54
2023/05/07 08:50:37;;;;;;;1.02;0.80;;;18.50;99.90;;;;;;4115072;28;20125;-55
2023/05/07 08:52:39;;;;;;;2.08;1.13;;;18.60;99.90;;;;;;4133254;28;20058;-55
2023/05/07 08:54:42;;;;;;;1.88;1.00;;;18.60;99.90;;;;;;4132799;28;20055;-55
2023/05/07 08:56:44;;;;;;;2.33;1.00;;;18.60;99.90;;;;;;4133191;28;20048;-55
2023/05/07 08:58:47;;;;;;;2.08;0.88;;;18.70;99.90;;;;;;4133126;28;20451;-54
2023/05/07 09:00:52;;;;;;;1.52;0.88;;;18.60;99.90;;;;;;4132373;28;20404;-53
2023/05/07 09:02:54;;;;;;;2.88;1.10;;;18.60;99.90;;;;;;4132629;28;20056;-53
2023/05/07 09:04:57;;;;;;;7.13;1.08;;;18.60;99.90;;;;;;4133166;28;20129;-54
2023/05/07 09:07:05;;;;;;;3.45;0.90;;;18.60;99.90;;;;;;4132995;28;20050;-55
2023/05/07 09:09:07;;;;;;;1.77;0.98;;;18.50;99.90;;;;;;4132985;28;20047;-55
2023/05/07 09:11:10;;;;;;;1.20;1.00;;;18.50;99.90;;;;;;4133094;28;20149;-55
2023/05/07 09:13:14;;;;;;;2.22;1.13;;;18.40;99.90;;;;;;4132907;28;20132;-55
2023/05/07 09:15:17;;;;;;;2.58;1.23;;;18.30;99.90;;;;;;4133070;28;20062;-54
2023/05/07 09:17:20;;;;;;;2.25;1.00;;;18.40;99.90;;;;;;4132611;28;20054;-54
2023/05/07 09:19:23;;;;;;;1.40;1.00;;;18.40;99.90;;;;;;4133011;28;20050;-53
2023/05/07 09:21:26;;;;;;;1.77;1.10;;;18.40;99.90;;;;;;4132857;28;20105;-54
2023/05/07 09:23:28;;;;;;;3.95;1.25;;;18.40;99.90;;;;;;4131823;28;20062;-55
2023/05/07 09:25:32;;;;;;;2.63;1.10;;;18.40;99.90;;;;;;4132553;28;20049;-55
2023/05/07 09:27:34;;;;;;;5.60;1.20;;;18.40;99.90;;;;;;4132837;28;20056;-54
2023/05/07 09:29:36;;;;;;;2.58;1.10;;;18.40;99.90;;;;;;4115357;28;20070;-54
2023/05/07 09:31:38;;;;;;;2.50;0.90;;;18.50;99.90;;;;;;4132351;28;20129;-54
2023/05/07 09:33:42;;;;;;;2.10;1.08;;;18.60;99.90;;;;;;4132828;28;20313;-54
2023/05/07 09:35:44;;;;;;;1.92;1.10;;;18.70;99.90;;;;;;4132497;28;20058;-54
2023/05/07 09:37:46;;;;;;;2.00;1.20;;;18.90;99.90;;;;;;4132625;28;20054;-54
2023/05/07 09:39:49;;;;;;;2.65;1.35;;;18.90;99.90;;;;;;4132507;28;20050;-55
2023/05/07 09:41:54;;;;;;;1.98;1.10;;;19.00;99.90;;;;;;4131454;28;20084;-54
2023/05/07 09:43:56;;;;;;;;;;;19.10;99.90;;;;;;4115836;28;20055;-54
2023/05/07 09:45:58;;;;;;;1.30;1.00;;;19.10;99.90;;;;;;4132137;28;19929;-54
2023/05/07 09:48:04;;;;;;;2.72;1.13;;;19.20;99.90;;;;;;4132630;28;20448;-53
2023/05/07 09:50:10;;;;;;;2.53;1.50;;;19.30;99.90;;;;;;4132512;28;20496;-54
2023/05/07 09:52:13;;;;;;;1.90;1.50;;;19.30;99.90;;;;;;4131311;28;20196;-54
2023/05/07 09:54:16;;;;;;;2.13;1.40;;;19.30;99.90;;;;;;4132299;28;20559;-54
2023/05/07 09:56:19;;;;;;;2.70;1.25;;;19.40;99.90;;;;;;4132084;28;20129;-54
2023/05/07 09:58:22;;;;;;;2.20;1.35;;;19.40;99.90;;;;;;4132088;28;20057;-54
2023/05/07 10:00:27;;;;;;;1.98;1.45;;;19.40;99.90;;;;;;4131744;28;20053;-55
2023/05/07 10:02:30;;;;;;;3.30;1.50;;;19.40;99.90;;;;;;4114016;28;20532;-54
2023/05/07 10:04:33;;;;;;;2.58;1.60;;;19.50;99.90;;;;;;4132221;28;20129;-54
2023/05/07 10:06:40;;;;;;;3.03;1.40;;;19.60;99.90;;;;;;4132050;28;20097;-60
2023/05/07 10:08:43;;;;;;;1.98;1.30;;;19.60;99.90;;;;;;4131862;28;20043;-55
2023/05/07 10:10:46;;;;;;;3.65;1.63;;;19.60;99.90;;;;;;4131985;28;20064;-55
2023/05/07 10:12:50;;;;;;;2.03;1.33;;;19.60;99.90;;;;;;4130884;28;20069;-55
2023/05/07 10:14:54;;;;;;;2.53;1.70;;;19.70;99.90;;;;;;4131506;28;20437;-55
2023/05/07 10:16:57;;;;;;;3.28;1.50;;;19.60;99.90;;;;;;4131955;28;20097;-55
2023/05/07 10:18:59;;;;;;;2.15;1.20;;;19.60;99.90;;;;;;4131606;28;20099;-56
2023/05/07 10:21:06;;;;;;;1.83;1.30;;;19.50;99.90;;;;;;4131615;28;20056;-54
2023/05/07 10:23:14;;;;;;;3.78;1.48;;;19.40;99.90;;;;;;4130538;28;20108;-54
2023/05/07 10:25:18;;;;;;;1.63;1.33;;;19.40;99.90;;;;;;4131689;28;20121;-54
2023/05/07 10:27:22;;;;;;;2.70;1.30;;;19.40;99.90;;;;;;4131765;28;20077;-55
2023/05/07 10:29:33;;;;;;;3.33;1.40;;;19.30;99.90;;;;;;4131450;28;20543;-54
2023/05/07 10:31:53;;;;;;;1.75;1.20;;;19.30;99.90;;;;;;4113767;28;20527;-54
2023/05/07 10:33:56;;;;;;;6.25;1.80;;;19.30;99.90;;;;;;4114264;28;20093;-55
2023/05/07 10:36:00;;;;;;;2.42;1.70;;;19.30;99.90;;;;;;4131816;28;20050;-54
2023/05/07 10:38:02;;;;;;;8.70;4.70;;;19.40;99.90;;;;;;4131623;28;20050;-55
2023/05/07 10:40:08;;;;;;;13.70;6.70;;;19.40;99.90;;;;;;4131642;28;20073;-55